sensor_id;sensor_type;location;lat;lon;timestamp;temperature;humidity
32187;DHT22;18686;53.084;8.872;2023-09-07T00:00:52;17.90;99.90
32187;DHT22;18686;53.084;8.872;2023-09-07T00:03:20;17.90;99.90
32187;DHT22;18686;53.084;8.872;2023-09-07T00:05:50;17.90;99.90
32187;DHT22;18686;53.084;8.872;2023-09-07T00:08:18;17.80;99.90
32187;DHT22;18686;53.084;8.872;2023-09-07T00:10:46;17.80;99.90
32187;DHT22;18686;53.084;8.872;2023-09-07T00:13:14;17.70;99.90
32187;DHT22;18686;53.084;8.872;2023-09-07T00:15:43;17.70;99.90
32187;DHT22;18686;53.084;8.872;2023-09-07T00:18:12;17.60;99.90
32187;DHT22;18686;53.084;8.872;2023-09-07T00:20:44;17.60;99.90
32187;DHT22;18686;53.084;8.872;2023-09-07T00:23:13;17.50;99.90
32187;DHT22;18686;53.084;8.872;2023-09-07T00:25:41;17.50;99.90
32187;DHT22;18686;53.084;8.872;2023-09-07T00:28:09;17.40;99.90
32187;DHT22;18686;53.084;8.872;2023-09-07T00:30:37;17.40;99.90
32187;DHT22;18686;53.084;8.872;2023-09-07T00:33:07;17.40;99.90
32187;DHT22;18686;53.084;8.872;2023-09-07T00:35:37;17.40;99.90
32187;DHT22;18686;53.084;8.872;2023-09-07T00:38:05;17.30;99.90
32187;DHT22;18686;53.084;8.872;2023-09-07T00:40:33;17.30;99.90
32187;DHT22;18686;53.084;8.872;2023-09-07T00:43:03;17.30;99.90
32187;DHT22;18686;53.084;8.872;2023-09-07T00:45:31;17.30;99.90
32187;DHT22;18686;53.084;8.872;2023-09-07T00:47:59;17.20;99.90
32187;DHT22;18686;53.084;8.872;2023-09-07T00:50:28;17.20;99.90
32187;DHT22;18686;53.084;8.872;2023-09-07T00:53:01;17.10;99.90
32187;DHT22;18686;53.084;8.872;2023-09-07T00:55:30;17.10;99.90
32187;DHT22;18686;53.084;8.872;2023-09-07T00:58:03;17.00;99.90
32187;DHT22;18686;53.084;8.872;2023-09-07T01:00:32;17.00;99.90
32187;DHT22;18686;53.084;8.872;2023-09-07T01:03:00;16.90;99.90
32187;DHT22;18686;53.084;8.872;2023-09-07T01:05:41;16.90;99.90
32187;DHT22;18686;53.084;8.872;2023-09-07T01:08:23;16.80;99.90
32187;DHT22;18686;53.084;8.872;2023-09-07T01:10:52;16.80;99.90
32187;DHT22;18686;53.084;8.872;2023-09-07T01:13:20;16.80;99.90
32187;DHT22;18686;53.084;8.872;2023-09-07T01:15:53;16.80;99.90
32187;DHT22;18686;53.084;8.872;2023-09-07T01:18:21;16.80;99.90
32187;DHT22;18686;53.084;8.872;2023-09-07T01:20:52;16.80;99.90
32187;DHT22;18686;53.084;8.872;2023-09-07T01:23:22;16.80;99.90
32187;DHT22;18686;53.084;8.872;2023-09-07T01:25:51;16.70;99.90
32187;DHT22;18686;53.084;8.872;2023-09-07T01:28:21;16.70;99.90
32187;DHT22;18686;53.084;8.872;2023-09-07T01:30:51;16.70;99.90
32187;DHT22;18686;53.084;8.872;2023-09-07T01:33:20;16.70;99.90
32187;DHT22;18686;53.084;8.872;2023-09-07T01:35:48;16.70;99.90
32187;DHT22;18686;53.084;8.872;2023-09-07T01:38:17;16.80;99.90
32187;DHT22;18686;53.084;8.872;2023-09-07T01:40:46;16.80;99.90
32187;DHT22;18686;53.084;8.872;2023-09-07T01:43:15;16.80;99.90
32187;DHT22;18686;53.084;8.872;2023-09-07T01:45:43;16.80;99.90
32187;DHT22;18686;53.084;8.872;2023-09-07T01:48:13;16.70;99.90
32187;DHT22;18686;53.084;8.872;2023-09-07T01:50:41;16.70;99.90
32187;DHT22;18686;53.084;8.872;2023-09-07T01:53:09;16.70;99.90
32187;DHT22;18686;53.084;8.872;2023-09-07T01:55:38;16.60;99.90
32187;DHT22;18686;53.084;8.872;2023-09-07T01:58:08;16.60;99.90
32187;DHT22;18686;53.084;8.872;2023-09-07T02:00:36;16.50;99.90
32187;DHT22;18686;53.084;8.872;2023-09-07T02:03:06;16.50;99.90
32187;DHT22;18686;53.084;8.872;2023-09-07T02:05:34;16.50;99.90
32187;DHT22;18686;53.084;8.872;2023-09-07T02:08:03;16.50;99.90
32187;DHT22;18686;53.084;8.872;2023-09-07T02:10:32;16.50;99.90
32187;DHT22;18686;53.084;8.872;2023-09-07T02:13:01;16.40;99.90
32187;DHT22;18686;53.084;8.872;2023-09-07T02:15:31;16.40;99.90
32187;DHT22;18686;53.084;8.872;2023-09-07T02:18:00;16.40;99.90
32187;DHT22;18686;53.084;8.872;2023-09-07T02:20:31;16.30;99.90
32187;DHT22;18686;53.084;8.872;2023-09-07T02:22:59;16.30;99.90
32187;DHT22;18686;53.084;8.872;2023-09-07T02:25:27;16.30;99.90
32187;DHT22;18686;53.084;8.872;2023-09-07T02:27:57;16.20;99.90
32187;DHT22;18686;53.084;8.872;2023-09-07T02:30:25;16.30;99.90
32187;DHT22;18686;53.084;8.872;2023-09-07T02:32:55;16.20;99.90
32187;DHT22;18686;53.084;8.872;2023-09-07T02:35:25;16.20;99.90
32187;DHT22;18686;53.084;8.872;2023-09-07T02:37:54;16.10;99.90
32187;DHT22;18686;53.084;8.872;2023-09-07T02:40:22;16.10;99.90
32187;DHT22;18686;53.084;8.872;2023-09-07T02:42:50;16.20;99.90
32187;DHT22;18686;53.084;8.872;2023-09-07T02:45:21;16.10;99.90
32187;DHT22;18686;53.084;8.872;2023-09-07T02:47:50;16.10;99.90
32187;DHT22;18686;53.084;8.872;2023-09-07T02:50:20;16.10;99.90
32187;DHT22;18686;53.084;8.872;2023-09-07T02:52:49;16.20;99.90
32187;DHT22;18686;53.084;8.872;2023-09-07T02:55:17;16.10;99.90
32187;DHT22;18686;53.084;8.872;2023-09-07T02:57:46;16.10;99.90
32187;DHT22;18686;53.084;8.872;2023-09-07T03:00:14;16.10;99.90
32187;DHT22;18686;53.084;8.872;2023-09-07T03:02:45;16.10;99.90
32187;DHT22;18686;53.084;8.872;2023-09-07T03:05:13;16.00;99.90
32187;DHT22;18686;53.084;8.872;2023-09-07T03:07:45;16.00;99.90
32187;DHT22;18686;53.084;8.872;2023-09-07T03:10:15;16.00;99.90
32187;DHT22;18686;53.084;8.872;2023-09-07T03:12:44;16.00;99.90
32187;DHT22;18686;53.084;8.872;2023-09-07T03:15:13;16.00;99.90
32187;DHT22;18686;53.084;8.872;2023-09-07T03:17:41;16.00;99.90
32187;DHT22;18686;53.084;8.872;2023-09-07T03:20:11;16.00;99.90
32187;DHT22;18686;53.084;8.872;2023-09-07T03:22:46;16.00;99.90
32187;DHT22;18686;53.084;8.872;2023-09-07T03:25:14;16.00;99.90
32187;DHT22;18686;53.084;8.872;2023-09-07T03:27:43;16.00;99.90
32187;DHT22;18686;53.084;8.872;2023-09-07T03:30:13;16.00;99.90
32187;DHT22;18686;53.084;8.872;2023-09-07T03:32:41;16.00;99.90
32187;DHT22;18686;53.084;8.872;2023-09-07T03:35:09;15.90;99.90
32187;DHT22;18686;53.084;8.872;2023-09-07T03:37:37;15.90;99.90
32187;DHT22;18686;53.084;8.872;2023-09-07T03:40:08;15.90;99.90
32187;DHT22;18686;53.084;8.872;2023-09-07T03:42:38;15.90;99.90
32187;DHT22;18686;53.084;8.872;2023-09-07T03:45:08;15.80;99.90
32187;DHT22;18686;53.084;8.872;2023-09-07T03:47:38;15.80;99.90
32187;DHT22;18686;53.084;8.872;2023-09-07T03:50:07;15.70;99.90
32187;DHT22;18686;53.084;8.872;2023-09-07T03:52:36;15.70;99.90
32187;DHT22;18686;53.084;8.872;2023-09-07T03:55:07;15.60;99.90
32187;DHT22;18686;53.084;8.872;2023-09-07T03:57:37;15.60;99.90
32187;DHT22;18686;53.084;8.872;2023-09-07T04:00:07;15.60;99.90
32187;DHT22;18686;53.084;8.872;2023-09-07T04:02:39;15.50;99.90
32187;DHT22;18686;53.084;8.872;2023-09-07T04:05:09;15.50;99.90
32187;DHT22;18686;53.084;8.872;2023-09-07T04:07:38;15.40;99.90
32187;DHT22;18686;53.084;8.872;2023-09-07T04:10:08;15.40;99.90
32187;DHT22;18686;53.084;8.872;2023-09-07T04:12:36;15.40;99.90
32187;DHT22;18686;53.084;8.872;2023-09-07T04:15:06;15.40;99.90
32187;DHT22;18686;53.084;8.872;2023-09-07T04:17:35;15.40;99.90
32187;DHT22;18686;53.084;8.872;2023-09-07T04:20:09;15.40;99.90
32187;DHT22;18686;53.084;8.872;2023-09-07T04:22:39;15.40;99.90
32187;DHT22;18686;53.084;8.872;2023-09-07T04:25:09;15.30;99.90
32187;DHT22;18686;53.084;8.872;2023-09-07T04:27:38;15.30;99.90
32187;DHT22;18686;53.084;8.872;2023-09-07T04:30:10;15.30;99.90
32187;DHT22;18686;53.084;8.872;2023-09-07T04:32:39;15.30;99.90
32187;DHT22;18686;53.084;8.872;2023-09-07T04:35:08;15.30;99.90
32187;DHT22;18686;53.084;8.872;2023-09-07T04:37:37;15.30;99.90
32187;DHT22;18686;53.084;8.872;2023-09-07T04:40:06;15.30;99.90
32187;DHT22;18686;53.084;8.872;2023-09-07T04:42:36;15.20;99.90
32187;DHT22;18686;53.084;8.872;2023-09-07T04:45:06;15.30;99.90
32187;DHT22;18686;53.084;8.872;2023-09-07T04:47:34;15.20;99.90
32187;DHT22;18686;53.084;8.872;2023-09-07T04:50:05;15.20;99.90
32187;DHT22;18686;53.084;8.872;2023-09-07T04:52:33;15.20;99.90
32187;DHT22;18686;53.084;8.872;2023-09-07T04:55:02;15.20;99.90
32187;DHT22;18686;53.084;8.872;2023-09-07T04:57:31;15.20;99.90
32187;DHT22;18686;53.084;8.872;2023-09-07T05:00:01;15.20;99.90
32187;DHT22;18686;53.084;8.872;2023-09-07T05:02:30;15.20;99.90
32187;DHT22;18686;53.084;8.872;2023-09-07T05:04:58;15.20;99.90
32187;DHT22;18686;53.084;8.872;2023-09-07T05:07:27;15.20;99.90
32187;DHT22;18686;53.084;8.872;2023-09-07T05:09:55;15.20;99.90
32187;DHT22;18686;53.084;8.872;2023-09-07T05:12:23;15.20;99.90
32187;DHT22;18686;53.084;8.872;2023-09-07T05:14:52;15.20;99.90
32187;DHT22;18686;53.084;8.872;2023-09-07T05:17:21;15.20;99.90
32187;DHT22;18686;53.084;8.872;2023-09-07T05:19:49;15.20;99.90
32187;DHT22;18686;53.084;8.872;2023-09-07T05:22:18;15.20;99.90
32187;DHT22;18686;53.084;8.872;2023-09-07T05:24:47;15.30;99.90
32187;DHT22;18686;53.084;8.872;2023-09-07T05:27:15;15.30;99.90
32187;DHT22;18686;53.084;8.872;2023-09-07T05:29:44;15.30;99.90
32187;DHT22;18686;53.084;8.872;2023-09-07T05:32:13;15.30;99.90
32187;DHT22;18686;53.084;8.872;2023-09-07T05:34:41;15.40;99.90
32187;DHT22;18686;53.084;8.872;2023-09-07T05:37:09;15.40;99.90
32187;DHT22;18686;53.084;8.872;2023-09-07T05:39:38;15.40;99.90
32187;DHT22;18686;53.084;8.872;2023-09-07T05:42:07;15.50;99.90
32187;DHT22;18686;53.084;8.872;2023-09-07T05:44:35;15.60;99.90
32187;DHT22;18686;53.084;8.872;2023-09-07T05:47:04;15.60;99.90
32187;DHT22;18686;53.084;8.872;2023-09-07T05:49:32;15.70;99.90
32187;DHT22;18686;53.084;8.872;2023-09-07T05:52:02;15.80;99.90
32187;DHT22;18686;53.084;8.872;2023-09-07T05:54:33;15.90;99.90
32187;DHT22;18686;53.084;8.872;2023-09-07T05:57:03;16.00;99.90
32187;DHT22;18686;53.084;8.872;2023-09-07T05:59:31;16.00;99.90
32187;DHT22;18686;53.084;8.872;2023-09-07T06:01:59;16.20;99.90
32187;DHT22;18686;53.084;8.872;2023-09-07T06:04:28;16.30;99.90
32187;DHT22;18686;53.084;8.872;2023-09-07T06:06:57;16.40;99.90
32187;DHT22;18686;53.084;8.872;2023-09-07T06:09:26;16.40;99.90
32187;DHT22;18686;53.084;8.872;2023-09-07T06:11:55;16.50;99.90
32187;DHT22;18686;53.084;8.872;2023-09-07T06:14:24;16.60;99.90
32187;DHT22;18686;53.084;8.872;2023-09-07T06:16:52;16.70;99.90
32187;DHT22;18686;53.084;8.872;2023-09-07T06:19:21;16.80;99.90
32187;DHT22;18686;53.084;8.872;2023-09-07T06:21:49;16.90;99.90
32187;DHT22;18686;53.084;8.872;2023-09-07T06:24:18;17.00;99.90
32187;DHT22;18686;53.084;8.872;2023-09-07T06:26:48;17.10;99.90
32187;DHT22;18686;53.084;8.872;2023-09-07T06:29:17;17.30;99.90
32187;DHT22;18686;53.084;8.872;2023-09-07T06:31:45;17.50;99.90
32187;DHT22;18686;53.084;8.872;2023-09-07T06:34:17;17.60;99.90
32187;DHT22;18686;53.084;8.872;2023-09-07T06:36:46;17.80;99.90
32187;DHT22;18686;53.084;8.872;2023-09-07T06:39:18;18.00;99.90
32187;DHT22;18686;53.084;8.872;2023-09-07T06:41:48;18.10;99.90
32187;DHT22;18686;53.084;8.872;2023-09-07T06:44:20;18.30;99.90
32187;DHT22;18686;53.084;8.872;2023-09-07T06:46:49;18.50;99.90
32187;DHT22;18686;53.084;8.872;2023-09-07T06:49:18;18.70;99.90
32187;DHT22;18686;53.084;8.872;2023-09-07T06:51:47;19.00;99.90
32187;DHT22;18686;53.084;8.872;2023-09-07T06:54:15;19.30;99.90
32187;DHT22;18686;53.084;8.872;2023-09-07T06:56:43;19.60;99.90
32187;DHT22;18686;53.084;8.872;2023-09-07T06:59:13;19.90;99.90
32187;DHT22;18686;53.084;8.872;2023-09-07T07:01:41;20.20;99.90
32187;DHT22;18686;53.084;8.872;2023-09-07T07:04:10;20.60;99.90
32187;DHT22;18686;53.084;8.872;2023-09-07T07:06:38;20.90;99.90
32187;DHT22;18686;53.084;8.872;2023-09-07T07:09:07;21.20;99.90
32187;DHT22;18686;53.084;8.872;2023-09-07T07:11:36;21.60;99.90
32187;DHT22;18686;53.084;8.872;2023-09-07T07:14:06;21.90;99.90
32187;DHT22;18686;53.084;8.872;2023-09-07T07:16:37;22.30;99.90
32187;DHT22;18686;53.084;8.872;2023-09-07T07:19:05;22.70;99.90
32187;DHT22;18686;53.084;8.872;2023-09-07T07:21:33;23.00;99.90
32187;DHT22;18686;53.084;8.872;2023-09-07T07:24:04;23.30;99.90
32187;DHT22;18686;53.084;8.872;2023-09-07T07:26:34;23.70;99.90
32187;DHT22;18686;53.084;8.872;2023-09-07T07:29:02;24.00;98.90
32187;DHT22;18686;53.084;8.872;2023-09-07T07:31:31;24.40;97.70
32187;DHT22;18686;53.084;8.872;2023-09-07T07:34:00;24.70;96.10
32187;DHT22;18686;53.084;8.872;2023-09-07T07:36:29;24.90;94.40
32187;DHT22;18686;53.084;8.872;2023-09-07T07:39:02;25.10;93.10
32187;DHT22;18686;53.084;8.872;2023-09-07T07:41:31;25.50;92.10
32187;DHT22;18686;53.084;8.872;2023-09-07T07:43:59;25.70;91.10
32187;DHT22;18686;53.084;8.872;2023-09-07T07:46:27;26.10;89.50
32187;DHT22;18686;53.084;8.872;2023-09-07T07:48:55;26.30;87.00
32187;DHT22;18686;53.084;8.872;2023-09-07T07:51:25;26.60;84.00
32187;DHT22;18686;53.084;8.872;2023-09-07T07:53:55;27.00;82.50
32187;DHT22;18686;53.084;8.872;2023-09-07T07:56:24;27.20;78.70
32187;DHT22;18686;53.084;8.872;2023-09-07T07:58:54;27.50;76.90
32187;DHT22;18686;53.084;8.872;2023-09-07T08:01:22;27.80;75.10
32187;DHT22;18686;53.084;8.872;2023-09-07T08:03:54;28.10;73.20
32187;DHT22;18686;53.084;8.872;2023-09-07T08:06:25;28.40;71.30
32187;DHT22;18686;53.084;8.872;2023-09-07T08:08:53;28.60;69.10
32187;DHT22;18686;53.084;8.872;2023-09-07T08:11:22;28.90;66.80
32187;DHT22;18686;53.084;8.872;2023-09-07T08:13:52;29.10;64.80
32187;DHT22;18686;53.084;8.872;2023-09-07T08:16:21;29.30;63.40
32187;DHT22;18686;53.084;8.872;2023-09-07T08:18:50;29.50;61.70
32187;DHT22;18686;53.084;8.872;2023-09-07T08:21:18;29.80;60.70
32187;DHT22;18686;53.084;8.872;2023-09-07T08:23:48;30.10;59.10
32187;DHT22;18686;53.084;8.872;2023-09-07T08:26:16;30.50;58.20
32187;DHT22;18686;53.084;8.872;2023-09-07T08:28:45;30.80;57.20
32187;DHT22;18686;53.084;8.872;2023-09-07T08:31:14;30.90;54.70
32187;DHT22;18686;53.084;8.872;2023-09-07T08:33:48;31.00;54.50
32187;DHT22;18686;53.084;8.872;2023-09-07T08:36:17;31.30;53.90
32187;DHT22;18686;53.084;8.872;2023-09-07T08:38:51;31.60;53.20
32187;DHT22;18686;53.084;8.872;2023-09-07T08:41:21;32.10;52.70
32187;DHT22;18686;53.084;8.872;2023-09-07T08:43:50;32.40;51.90
32187;DHT22;18686;53.084;8.872;2023-09-07T08:46:20;32.70;50.80
32187;DHT22;18686;53.084;8.872;2023-09-07T08:48:51;33.10;49.30
32187;DHT22;18686;53.084;8.872;2023-09-07T08:51:19;33.50;48.30
32187;DHT22;18686;53.084;8.872;2023-09-07T08:53:51;33.60;46.50
32187;DHT22;18686;53.084;8.872;2023-09-07T08:56:20;33.90;46.30
32187;DHT22;18686;53.084;8.872;2023-09-07T08:58:49;34.20;45.90
32187;DHT22;18686;53.084;8.872;2023-09-07T09:01:17;34.30;45.60
32187;DHT22;18686;53.084;8.872;2023-09-07T09:03:48;34.70;45.00
32187;DHT22;18686;53.084;8.872;2023-09-07T09:06:18;35.10;45.20
32187;DHT22;18686;53.084;8.872;2023-09-07T09:08:47;35.00;43.50
32187;DHT22;18686;53.084;8.872;2023-09-07T09:11:18;35.30;43.60
32187;DHT22;18686;53.084;8.872;2023-09-07T09:13:47;35.70;43.10
32187;DHT22;18686;53.084;8.872;2023-09-07T09:16:15;35.90;42.50
32187;DHT22;18686;53.084;8.872;2023-09-07T09:18:51;36.20;41.80
32187;DHT22;18686;53.084;8.872;2023-09-07T09:21:20;36.70;41.60
32187;DHT22;18686;53.084;8.872;2023-09-07T09:23:49;36.80;40.70
32187;DHT22;18686;53.084;8.872;2023-09-07T09:26:19;36.90;40.60
32187;DHT22;18686;53.084;8.872;2023-09-07T09:28:47;37.40;40.40
32187;DHT22;18686;53.084;8.872;2023-09-07T09:31:18;37.70;39.60
32187;DHT22;18686;53.084;8.872;2023-09-07T09:33:48;38.10;39.10
32187;DHT22;18686;53.084;8.872;2023-09-07T09:36:18;38.50;37.90
32187;DHT22;18686;53.084;8.872;2023-09-07T09:38:48;38.50;37.40
32187;DHT22;18686;53.084;8.872;2023-09-07T09:41:19;38.40;38.10
32187;DHT22;18686;53.084;8.872;2023-09-07T09:43:48;38.70;36.90
32187;DHT22;18686;53.084;8.872;2023-09-07T09:46:18;38.80;36.50
32187;DHT22;18686;53.084;8.872;2023-09-07T09:48:47;38.40;35.60
32187;DHT22;18686;53.084;8.872;2023-09-07T09:51:17;38.30;36.00
32187;DHT22;18686;53.084;8.872;2023-09-07T09:53:46;37.80;35.60
32187;DHT22;18686;53.084;8.872;2023-09-07T09:56:16;37.50;35.90
32187;DHT22;18686;53.084;8.872;2023-09-07T09:58:48;37.10;36.00
32187;DHT22;18686;53.084;8.872;2023-09-07T10:01:17;37.00;36.60
32187;DHT22;18686;53.084;8.872;2023-09-07T10:03:47;36.70;37.20
32187;DHT22;18686;53.084;8.872;2023-09-07T10:06:19;36.10;37.60
32187;DHT22;18686;53.084;8.872;2023-09-07T10:08:59;35.50;38.00
32187;DHT22;18686;53.084;8.872;2023-09-07T10:11:31;35.60;38.20
32187;DHT22;18686;53.084;8.872;2023-09-07T10:14:02;36.00;37.60
32187;DHT22;18686;53.084;8.872;2023-09-07T10:16:41;36.90;37.80
32187;DHT22;18686;53.084;8.872;2023-09-07T10:19:16;38.00;35.30
32187;DHT22;18686;53.084;8.872;2023-09-07T10:21:45;39.50;34.50
32187;DHT22;18686;53.084;8.872;2023-09-07T10:24:24;40.90;33.20
32187;DHT22;18686;53.084;8.872;2023-09-07T10:27:03;41.80;31.90
32187;DHT22;18686;53.084;8.872;2023-09-07T10:29:42;42.10;30.80
32187;DHT22;18686;53.084;8.872;2023-09-07T10:32:11;43.20;30.10
32187;DHT22;18686;53.084;8.872;2023-09-07T10:34:46;44.40;29.80
32187;DHT22;18686;53.084;8.872;2023-09-07T10:37:14;44.60;29.50
32187;DHT22;18686;53.084;8.872;2023-09-07T10:39:44;45.20;28.70
32187;DHT22;18686;53.084;8.872;2023-09-07T10:42:22;45.40;28.60
32187;DHT22;18686;53.084;8.872;2023-09-07T10:44:53;46.20;28.60
32187;DHT22;18686;53.084;8.872;2023-09-07T10:47:22;46.80;28.30
32187;DHT22;18686;53.084;8.872;2023-09-07T10:49:50;47.30;27.60
32187;DHT22;18686;53.084;8.872;2023-09-07T10:52:18;47.60;27.30
32187;DHT22;18686;53.084;8.872;2023-09-07T10:54:55;48.40;27.70
32187;DHT22;18686;53.084;8.872;2023-09-07T10:57:24;49.40;26.90
32187;DHT22;18686;53.084;8.872;2023-09-07T10:59:55;50.20;26.00
32187;DHT22;18686;53.084;8.872;2023-09-07T11:02:23;51.10;25.70
32187;DHT22;18686;53.084;8.872;2023-09-07T11:04:51;51.80;25.30
32187;DHT22;18686;53.084;8.872;2023-09-07T11:07:20;52.30;25.20
32187;DHT22;18686;53.084;8.872;2023-09-07T11:09:51;53.10;25.10
32187;DHT22;18686;53.084;8.872;2023-09-07T11:12:20;53.90;24.50
32187;DHT22;18686;53.084;8.872;2023-09-07T11:14:49;53.20;24.70
32187;DHT22;18686;53.084;8.872;2023-09-07T11:17:25;53.40;24.70
32187;DHT22;18686;53.084;8.872;2023-09-07T11:19:54;53.50;24.50
32187;DHT22;18686;53.084;8.872;2023-09-07T11:22:22;53.40;24.20
32187;DHT22;18686;53.084;8.872;2023-09-07T11:24:51;52.80;24.40
32187;DHT22;18686;53.084;8.872;2023-09-07T11:27:19;53.20;24.20
32187;DHT22;18686;53.084;8.872;2023-09-07T11:29:51;53.30;24.10
32187;DHT22;18686;53.084;8.872;2023-09-07T11:32:22;53.80;24.30
32187;DHT22;18686;53.084;8.872;2023-09-07T11:34:52;53.90;23.70
32187;DHT22;18686;53.084;8.872;2023-09-07T11:37:26;54.30;24.00
32187;DHT22;18686;53.084;8.872;2023-09-07T11:39:54;55.30;23.50
32187;DHT22;18686;53.084;8.872;2023-09-07T11:42:23;55.70;23.40
32187;DHT22;18686;53.084;8.872;2023-09-07T11:44:51;55.80;23.40
32187;DHT22;18686;53.084;8.872;2023-09-07T11:47:19;56.20;23.40
32187;DHT22;18686;53.084;8.872;2023-09-07T11:49:49;56.70;23.20
32187;DHT22;18686;53.084;8.872;2023-09-07T11:52:20;56.20;22.60
32187;DHT22;18686;53.084;8.872;2023-09-07T11:54:48;55.50;22.80
32187;DHT22;18686;53.084;8.872;2023-09-07T11:57:16;55.30;23.10
32187;DHT22;18686;53.084;8.872;2023-09-07T11:59:44;54.20;23.10
32187;DHT22;18686;53.084;8.872;2023-09-07T12:02:25;54.10;23.20
32187;DHT22;18686;53.084;8.872;2023-09-07T12:04:55;54.50;23.60
32187;DHT22;18686;53.084;8.872;2023-09-07T12:07:24;54.80;23.30
32187;DHT22;18686;53.084;8.872;2023-09-07T12:09:52;54.80;23.00
32187;DHT22;18686;53.084;8.872;2023-09-07T12:12:23;55.40;23.30
32187;DHT22;18686;53.084;8.872;2023-09-07T12:14:51;55.80;23.00
32187;DHT22;18686;53.084;8.872;2023-09-07T12:17:19;56.60;22.80
32187;DHT22;18686;53.084;8.872;2023-09-07T12:19:49;56.80;22.90
32187;DHT22;18686;53.084;8.872;2023-09-07T12:22:19;57.30;22.80
32187;DHT22;18686;53.084;8.872;2023-09-07T12:24:47;57.50;22.80
32187;DHT22;18686;53.084;8.872;2023-09-07T12:27:32;57.60;22.70
32187;DHT22;18686;53.084;8.872;2023-09-07T12:30:18;57.50;22.50
32187;DHT22;18686;53.084;8.872;2023-09-07T12:32:48;57.20;22.50
32187;DHT22;18686;53.084;8.872;2023-09-07T12:35:17;57.20;22.50
32187;DHT22;18686;53.084;8.872;2023-09-07T12:37:48;56.40;22.50
32187;DHT22;18686;53.084;8.872;2023-09-07T12:40:17;55.60;22.60
32187;DHT22;18686;53.084;8.872;2023-09-07T12:42:46;56.00;22.80
32187;DHT22;18686;53.084;8.872;2023-09-07T12:45:14;56.40;22.70
32187;DHT22;18686;53.084;8.872;2023-09-07T12:47:42;56.30;22.60
32187;DHT22;18686;53.084;8.872;2023-09-07T12:50:11;56.30;22.20
32187;DHT22;18686;53.084;8.872;2023-09-07T12:52:40;56.30;22.40
32187;DHT22;18686;53.084;8.872;2023-09-07T12:55:10;56.40;22.50
32187;DHT22;18686;53.084;8.872;2023-09-07T12:57:38;57.10;22.40
32187;DHT22;18686;53.084;8.872;2023-09-07T13:00:09;57.30;22.20
32187;DHT22;18686;53.084;8.872;2023-09-07T13:02:39;57.40;22.30
32187;DHT22;18686;53.084;8.872;2023-09-07T13:05:07;57.30;22.10
32187;DHT22;18686;53.084;8.872;2023-09-07T13:07:36;56.70;22.40
32187;DHT22;18686;53.084;8.872;2023-09-07T13:10:05;56.50;22.50
32187;DHT22;18686;53.084;8.872;2023-09-07T13:12:37;56.90;22.60
32187;DHT22;18686;53.084;8.872;2023-09-07T13:15:06;57.20;22.30
32187;DHT22;18686;53.084;8.872;2023-09-07T13:17:34;57.40;22.50
32187;DHT22;18686;53.084;8.872;2023-09-07T13:20:02;57.40;22.30
32187;DHT22;18686;53.084;8.872;2023-09-07T13:22:31;57.60;22.30
32187;DHT22;18686;53.084;8.872;2023-09-07T13:24:59;57.80;22.10
32187;DHT22;18686;53.084;8.872;2023-09-07T13:27:27;57.30;22.10
32187;DHT22;18686;53.084;8.872;2023-09-07T13:29:57;56.70;22.20
32187;DHT22;18686;53.084;8.872;2023-09-07T13:32:25;55.40;22.20
32187;DHT22;18686;53.084;8.872;2023-09-07T13:34:53;55.30;22.80
32187;DHT22;18686;53.084;8.872;2023-09-07T13:37:22;55.20;23.00
32187;DHT22;18686;53.084;8.872;2023-09-07T13:39:50;55.10;22.50
32187;DHT22;18686;53.084;8.872;2023-09-07T13:42:18;55.20;23.00
32187;DHT22;18686;53.084;8.872;2023-09-07T13:44:46;54.20;22.90
32187;DHT22;18686;53.084;8.872;2023-09-07T13:47:18;53.10;23.30
32187;DHT22;18686;53.084;8.872;2023-09-07T13:49:46;51.40;23.80
32187;DHT22;18686;53.084;8.872;2023-09-07T13:52:14;49.30;24.30
32187;DHT22;18686;53.084;8.872;2023-09-07T13:54:42;46.80;25.40
32187;DHT22;18686;53.084;8.872;2023-09-07T13:57:11;44.50;26.70
32187;DHT22;18686;53.084;8.872;2023-09-07T13:59:39;42.50;27.70
32187;DHT22;18686;53.084;8.872;2023-09-07T14:02:07;40.90;28.60
32187;DHT22;18686;53.084;8.872;2023-09-07T14:04:37;39.50;29.80
32187;DHT22;18686;53.084;8.872;2023-09-07T14:07:05;37.90;30.70
32187;DHT22;18686;53.084;8.872;2023-09-07T14:09:33;36.70;31.90
32187;DHT22;18686;53.084;8.872;2023-09-07T14:12:01;35.80;33.00
32187;DHT22;18686;53.084;8.872;2023-09-07T14:14:29;35.10;33.80
32187;DHT22;18686;53.084;8.872;2023-09-07T14:16:58;34.40;34.80
32187;DHT22;18686;53.084;8.872;2023-09-07T14:19:27;33.80;35.50
32187;DHT22;18686;53.084;8.872;2023-09-07T14:21:59;33.10;36.10
32187;DHT22;18686;53.084;8.872;2023-09-07T14:24:27;32.70;37.20
32187;DHT22;18686;53.084;8.872;2023-09-07T14:26:55;32.30;37.80
32187;DHT22;18686;53.084;8.872;2023-09-07T14:29:23;32.00;38.30
32187;DHT22;18686;53.084;8.872;2023-09-07T14:31:53;31.70;38.60
32187;DHT22;18686;53.084;8.872;2023-09-07T14:34:22;31.50;38.60
32187;DHT22;18686;53.084;8.872;2023-09-07T14:36:50;31.30;40.10
32187;DHT22;18686;53.084;8.872;2023-09-07T14:39:19;31.10;39.70
32187;DHT22;18686;53.084;8.872;2023-09-07T14:41:51;30.80;40.20
32187;DHT22;18686;53.084;8.872;2023-09-07T14:44:20;30.60;41.80
32187;DHT22;18686;53.084;8.872;2023-09-07T14:46:49;30.40;42.10
32187;DHT22;18686;53.084;8.872;2023-09-07T14:49:17;30.30;42.20
32187;DHT22;18686;53.084;8.872;2023-09-07T14:51:47;30.10;42.60
32187;DHT22;18686;53.084;8.872;2023-09-07T14:54:15;30.00;42.70
32187;DHT22;18686;53.084;8.872;2023-09-07T14:56:46;29.90;43.00
32187;DHT22;18686;53.084;8.872;2023-09-07T14:59:14;29.80;43.30
32187;DHT22;18686;53.084;8.872;2023-09-07T15:01:42;29.80;44.00
32187;DHT22;18686;53.084;8.872;2023-09-07T15:04:16;29.70;43.40
32187;DHT22;18686;53.084;8.872;2023-09-07T15:06:44;29.50;43.60
32187;DHT22;18686;53.084;8.872;2023-09-07T15:09:12;29.40;43.80
32187;DHT22;18686;53.084;8.872;2023-09-07T15:11:41;29.30;44.10
32187;DHT22;18686;53.084;8.872;2023-09-07T15:14:11;29.30;44.40
32187;DHT22;18686;53.084;8.872;2023-09-07T15:16:39;29.20;44.90
32187;DHT22;18686;53.084;8.872;2023-09-07T15:19:07;29.10;44.70
32187;DHT22;18686;53.084;8.872;2023-09-07T15:21:36;29.00;45.40
32187;DHT22;18686;53.084;8.872;2023-09-07T15:24:05;28.90;45.80
32187;DHT22;18686;53.084;8.872;2023-09-07T15:26:40;28.80;45.70
32187;DHT22;18686;53.084;8.872;2023-09-07T15:29:11;28.70;45.80
32187;DHT22;18686;53.084;8.872;2023-09-07T15:31:40;28.70;45.80
32187;DHT22;18686;53.084;8.872;2023-09-07T15:34:09;28.60;46.20
32187;DHT22;18686;53.084;8.872;2023-09-07T15:36:37;28.50;46.50
32187;DHT22;18686;53.084;8.872;2023-09-07T15:39:05;28.40;46.80
32187;DHT22;18686;53.084;8.872;2023-09-07T15:41:33;28.40;46.90
32187;DHT22;18686;53.084;8.872;2023-09-07T15:44:02;28.40;46.90